Hlavní strana
METAR-TAF:

METAR-TAF

Letiště :

Aarhus, Dánsko

zeměpisná šířka: 56-18N, zeměpisná délka: 010-37E, výška: 23 m

Aktuální stav počasí

Zpráva byla vytvořena před 6 minutami, v 20:20 UTC
Východojihovýchodní vítr 4 kt
Teplota 10°C
Vlhkost vzduchu 93%
Tlak 1015 hPa
Viditelnost 10 km a více

METAR: EKAH 142020Z AUTO 11004KT 9999NDV OVC064/// 10/09 Q1015

Čas: 22:26 (20:26 UTC)

Předpověď počasí

Zpráva byla vytvořena před 3 hodinami a 16 minutami, v 17:10 UTC
Předpověď platná od 14 v 18 UTC do 15 v 18 UTC
Východní vítr 10 kt
Viditelnost 10 km a více
Skoro jasno ve výšce 2500 ft
Dočasný
od 14 v 20 UTC do 15 v 03 UTC
Oblačno až skoro zataženo ve výšce 6000 ft, Cumulonimbus.
dešťové přeháňky
Dočasný
od 15 v 03 UTC do 15 v 10 UTC
Jihovýchodní vítr 15 kt s nárazy do 25 kt
Viditelnost: 4000 m
Oblačno až skoro zataženo ve výšce 800 ft
kouřmo

TAF: EKAH 141710Z 1418/1518 10010KT 9999 FEW025 TEMPO 1420/1503 SHRA BKN060CB TEMPO 1503/1510 13015G25KT 4000 BR BKN008

Stav a předpovědi počasí z více než 4 000 letišť (zprávy METAR a TAF).

Červené a žluté tečky na mapě představují dostupné meteorologické stanice.

Když kurzor umístíte na tečku, zobrazí se název stanice.

Pak kliknutím zobrazíte stav a předpověď počasí.

Chcete-li změnit mapu, kliknutím na zelené tlačítko se znaménkem +mapu přiblížíte, kliknutím na zelené tlačítko se znaménkem – mapu oddálíte a kliknutím na zelené šipky přejdete na sousední mapy.


METAR-TAF: